GCRR/ACE METAR and TAF weather

Enter ICAO airport designator
Station Type Date Time Source
GCRR METAR 2018/04/23 11:00 UTC NOAA

GCRR 231100Z 30015KT 280V340 9999 FEW030 SCT045 20/11 Q1016


Station Type Date Time Source
GCRR Decoded METAR 2018/04/23 11:00 UTC NOAA

Lanzarote / Aeropuerto, Spain (GCRR) 28-57N 013-36W 21M
Apr 23, 2018 - 07:00 AM EDT / 2018.04.23 1100 UTC
Wind: from the WNW (300 degrees) at 17 MPH (15 KT) (direction variable):0
Visibility: greater than 7 mile(s):0
Sky conditions: partly cloudy
Temperature: 68 F (20 C)
Dew Point: 51 F (11 C)
Relative Humidity: 56%
Pressure (altimeter): 30.00 in. Hg (1016 hPa)
ob: GCRR 231100Z 30015KT 280V340 9999 FEW030 SCT045 20/11 Q1016
cycle: 11

Station Type Date Time Source
GCRR TAF 2018/04/23 09:27 UTC NOAA

TAF GCRR 230800Z 2309/2409 30014KT 9999 SCT030 TX23/2314Z TN16/2406Z
TEMPO 2312/2322 30015G25KT PROB40
TEMPO 2311/2403 4500 RA SCT030TCU


Example: see airport list